createdAt,value
2022-10-01T00:01:16.904Z,48.29
2022-10-01T00:03:43.594Z,48.22
2022-10-01T00:06:20.758Z,48.30
2022-10-01T00:08:49.720Z,48.33
2022-10-01T00:11:20.854Z,48.25
2022-10-01T00:13:48.825Z,48.34
2022-10-01T00:16:21.813Z,48.20
2022-10-01T00:18:48.859Z,48.24
2022-10-01T00:21:21.232Z,48.36
2022-10-01T00:23:53.065Z,48.56
2022-10-01T00:26:22.911Z,48.44
2022-10-01T00:28:56.243Z,48.38
2022-10-01T00:31:23.436Z,48.38
2022-10-01T00:33:53.117Z,48.29
2022-10-01T00:36:19.674Z,48.46
2022-10-01T00:38:47.750Z,48.37
2022-10-01T00:41:15.920Z,48.24
2022-10-01T00:43:49.795Z,48.71
2022-10-01T00:46:21.672Z,48.62
2022-10-01T00:48:53.922Z,48.54
2022-10-01T00:51:21.130Z,48.52
2022-10-01T00:53:47.835Z,48.72
2022-10-01T00:56:14.433Z,48.40
2022-10-01T00:58:41.349Z,48.51
2022-10-01T01:01:08.053Z,48.63
2022-10-01T01:03:34.780Z,48.66
2022-10-01T01:06:01.273Z,48.58
2022-10-01T01:08:29.214Z,48.64
2022-10-01T01:11:55.084Z,48.85
2022-10-01T01:14:48.371Z,49.01
2022-10-01T01:17:34.254Z,48.67
2022-10-01T01:20:14.420Z,49.09
2022-10-01T01:22:51.939Z,48.93
2022-10-01T01:25:22.178Z,48.87
2022-10-01T01:27:56.486Z,49.01
2022-10-01T01:30:23.090Z,48.85
2022-10-01T01:32:55.551Z,49.08
2022-10-01T01:35:33.171Z,49.12
2022-10-01T01:38:05.106Z,48.99
2022-10-01T01:40:34.413Z,48.99
2022-10-01T01:43:05.545Z,48.99
2022-10-01T01:45:34.031Z,49.13
2022-10-01T01:48:02.847Z,49.03
2022-10-01T01:50:38.329Z,49.16
2022-10-01T01:53:04.959Z,49.24
2022-10-01T01:55:32.315Z,49.15
2022-10-01T01:57:59.480Z,49.20
2022-10-01T02:00:26.002Z,49.04
2022-10-01T02:02:54.491Z,49.25
2022-10-01T02:05:26.248Z,49.42
2022-10-01T02:08:12.677Z,49.55
2022-10-01T02:11:03.136Z,49.58
2022-10-01T02:13:39.900Z,49.47
2022-10-01T02:16:18.980Z,49.54
2022-10-01T02:18:58.612Z,49.65
2022-10-01T02:21:58.664Z,49.66
2022-10-01T02:24:38.455Z,49.61
2022-10-01T02:27:12.318Z,49.55
2022-10-01T02:29:40.830Z,49.60
2022-10-01T02:32:09.546Z,49.60
2022-10-01T02:34:36.887Z,49.64
2022-10-01T02:37:06.148Z,49.44
2022-10-01T02:39:34.773Z,49.98
2022-10-01T02:42:03.609Z,49.74
2022-10-01T02:44:38.136Z,49.85
2022-10-01T02:47:18.104Z,50.02
2022-10-01T02:49:44.808Z,49.70
2022-10-01T02:52:34.232Z,49.90
2022-10-01T02:55:07.186Z,49.98
2022-10-01T02:57:33.895Z,49.85
2022-10-01T03:00:04.600Z,49.86
2022-10-01T03:02:33.087Z,49.84
2022-10-01T03:05:00.658Z,50.00
2022-10-01T03:07:28.715Z,49.88
2022-10-01T03:09:55.568Z,49.96
2022-10-01T03:12:23.540Z,49.94
2022-10-01T03:14:50.448Z,50.12
2022-10-01T03:17:17.981Z,50.27
2022-10-01T03:19:44.483Z,50.19
2022-10-01T03:22:18.127Z,50.12
2022-10-01T03:24:44.834Z,50.16
2022-10-01T03:27:11.378Z,49.92
2022-10-01T03:29:37.904Z,50.21
2022-10-01T03:32:04.409Z,50.16
2022-10-01T03:34:30.935Z,50.47
2022-10-01T03:36:57.563Z,50.42
2022-10-01T03:39:24.179Z,50.34
2022-10-01T03:41:50.755Z,50.59
2022-10-01T03:44:17.666Z,50.56
2022-10-01T03:46:44.466Z,50.44
2022-10-01T03:49:11.339Z,50.47
2022-10-01T03:51:38.070Z,50.67
2022-10-01T03:54:06.449Z,50.74
2022-10-01T03:56:34.401Z,50.70
2022-10-01T03:59:01.361Z,50.76
2022-10-01T04:01:28.346Z,50.80
2022-10-01T04:03:54.964Z,50.95
2022-10-01T04:06:21.564Z,50.95
2022-10-01T04:08:48.212Z,50.99
2022-10-01T04:11:14.756Z,50.98
2022-10-01T04:13:41.314Z,51.00
2022-10-01T04:16:07.972Z,51.12
2022-10-01T04:18:35.576Z,51.04
2022-10-01T04:21:02.138Z,51.29
2022-10-01T04:23:28.606Z,51.25
2022-10-01T04:25:58.974Z,51.39
2022-10-01T04:28:25.551Z,51.31
2022-10-01T04:31:12.062Z,51.40
2022-10-01T04:33:38.588Z,51.32
2022-10-01T04:36:05.374Z,51.49
2022-10-01T04:38:31.941Z,51.48
2022-10-01T04:40:58.411Z,51.54
2022-10-01T04:43:24.970Z,51.64
2022-10-01T04:45:51.471Z,51.64
2022-10-01T04:48:18.158Z,51.81
2022-10-01T04:50:44.833Z,51.60
2022-10-01T04:53:11.295Z,51.76
2022-10-01T04:55:37.865Z,51.85
2022-10-01T04:58:04.783Z,51.92
2022-10-01T05:00:31.248Z,51.71
2022-10-01T05:02:58.170Z,51.73
2022-10-01T05:05:27.247Z,51.83
2022-10-01T05:07:53.760Z,51.86
2022-10-01T05:10:22.678Z,51.93
2022-10-01T05:12:50.191Z,52.00
2022-10-01T05:15:17.647Z,51.89
2022-10-01T05:17:44.648Z,51.93
2022-10-01T05:20:26.056Z,52.25
2022-10-01T05:22:53.257Z,52.05
2022-10-01T05:25:20.945Z,52.16
2022-10-01T05:27:47.489Z,51.97
2022-10-01T05:30:20.075Z,52.04
2022-10-01T05:32:57.787Z,52.47
2022-10-01T05:35:24.674Z,52.05
2022-10-01T05:38:09.139Z,52.61
2022-10-01T05:40:35.866Z,52.18
2022-10-01T05:43:04.469Z,52.05
2022-10-01T05:45:31.877Z,52.17
2022-10-01T05:48:06.677Z,52.54
2022-10-01T05:50:42.499Z,52.24
2022-10-01T05:53:10.655Z,52.63
2022-10-01T05:55:37.604Z,52.10
2022-10-01T05:58:10.493Z,51.98
2022-10-01T06:00:38.914Z,52.09
2022-10-01T06:03:06.227Z,52.08
2022-10-01T06:05:34.371Z,52.11
2022-10-01T06:08:01.414Z,52.13
2022-10-01T06:10:30.277Z,52.05
2022-10-01T06:13:01.842Z,52.44
2022-10-01T06:15:34.214Z,52.02
2022-10-01T06:18:05.599Z,52.07
2022-10-01T06:20:37.353Z,51.93
2022-10-01T06:23:11.329Z,52.07
2022-10-01T06:25:39.711Z,52.17
2022-10-01T06:28:08.257Z,52.31
2022-10-01T06:30:37.293Z,52.30
2022-10-01T06:33:12.662Z,52.47
2022-10-01T06:35:44.630Z,52.22
2022-10-01T06:38:12.206Z,51.84
2022-10-01T06:40:39.465Z,51.75
2022-10-01T06:43:08.369Z,51.31
2022-10-01T06:45:42.504Z,51.42
2022-10-01T06:48:14.608Z,50.98
2022-10-01T06:50:43.164Z,50.92
2022-10-01T06:53:09.875Z,51.11
2022-10-01T06:55:37.203Z,51.41
2022-10-01T06:58:26.274Z,51.89
2022-10-01T07:00:59.018Z,51.74
2022-10-01T07:03:25.848Z,51.60
2022-10-01T07:05:52.564Z,51.74
2022-10-01T07:08:19.326Z,51.75
2022-10-01T07:10:45.964Z,51.64
2022-10-01T07:13:18.076Z,52.12
2022-10-01T07:15:45.855Z,51.91
2022-10-01T07:18:13.779Z,52.13
2022-10-01T07:20:40.678Z,52.25
2022-10-01T07:23:10.530Z,52.21
2022-10-01T07:25:38.903Z,52.24
2022-10-01T07:28:07.925Z,52.66
2022-10-01T07:30:34.896Z,52.59
2022-10-01T07:33:01.368Z,52.50
2022-10-01T07:35:28.514Z,52.62
2022-10-01T07:37:55.385Z,52.84
2022-10-01T07:40:22.013Z,52.79
2022-10-01T07:42:58.784Z,53.34
2022-10-01T07:45:26.279Z,52.60
2022-10-01T07:47:57.221Z,52.67
2022-10-01T07:50:25.359Z,52.42
2022-10-01T07:52:56.254Z,52.28
2022-10-01T07:55:26.402Z,51.92
2022-10-01T07:57:59.056Z,51.62
2022-10-01T08:00:27.206Z,51.46
2022-10-01T08:02:56.162Z,51.26
2022-10-01T08:05:29.012Z,51.12
2022-10-01T08:08:00.562Z,51.01
2022-10-01T08:10:27.808Z,50.70
2022-10-01T08:13:02.025Z,50.35
2022-10-01T08:15:29.212Z,50.42
2022-10-01T08:17:55.808Z,50.64
2022-10-01T08:20:22.368Z,50.52
2022-10-01T08:22:48.931Z,50.67
2022-10-01T08:25:15.972Z,51.01
2022-10-01T08:27:42.512Z,50.99
2022-10-01T08:30:09.404Z,50.68
2022-10-01T08:32:35.978Z,50.67
2022-10-01T08:35:04.235Z,50.36
2022-10-01T08:37:30.777Z,50.41
2022-10-01T08:39:57.371Z,50.33
2022-10-01T08:42:35.667Z,50.14
2022-10-01T08:45:10.043Z,50.34
2022-10-01T08:47:44.251Z,49.76
2022-10-01T08:50:39.359Z,49.35
2022-10-01T08:53:15.377Z,49.16
2022-10-01T08:55:43.100Z,49.25
2022-10-01T08:58:15.839Z,48.61
2022-10-01T09:00:45.001Z,48.49
2022-10-01T09:03:14.874Z,48.29
2022-10-01T09:05:51.256Z,48.23
2022-10-01T09:08:43.637Z,48.30
2022-10-01T09:11:48.518Z,47.94
2022-10-01T09:14:32.020Z,48.17
2022-10-01T09:17:14.783Z,48.27
2022-10-01T09:20:04.779Z,48.32
2022-10-01T09:22:41.750Z,48.60
2022-10-01T09:25:17.266Z,48.75
2022-10-01T09:27:44.240Z,49.23
2022-10-01T09:30:15.964Z,49.20
2022-10-01T09:32:55.466Z,49.18
2022-10-01T09:35:35.417Z,49.62
2022-10-01T09:38:25.225Z,49.98
2022-10-01T09:40:55.647Z,49.59
2022-10-01T09:43:38.135Z,49.88
2022-10-01T09:46:13.262Z,49.96
2022-10-01T09:48:57.414Z,49.86
2022-10-01T09:51:34.809Z,49.87
2022-10-01T09:54:18.068Z,50.08
2022-10-01T09:57:01.327Z,50.18
2022-10-01T09:59:35.894Z,50.20
2022-10-01T10:02:09.209Z,50.09
2022-10-01T10:04:35.829Z,50.29
2022-10-01T10:07:05.277Z,50.21
2022-10-01T10:09:33.807Z,50.43
2022-10-01T10:12:01.255Z,50.42
2022-10-01T10:14:42.036Z,50.48
2022-10-01T10:17:16.710Z,50.45
2022-10-01T10:19:51.785Z,50.42
2022-10-01T10:22:26.725Z,50.47
2022-10-01T10:24:54.404Z,50.65
2022-10-01T10:27:28.069Z,50.75
2022-10-01T10:30:02.955Z,51.05
2022-10-01T10:32:29.766Z,51.29
2022-10-01T10:35:03.750Z,51.44
2022-10-01T10:37:36.585Z,51.60
2022-10-01T10:40:08.184Z,51.50
2022-10-01T10:42:38.732Z,51.36
2022-10-01T10:45:17.422Z,51.92
2022-10-01T10:47:50.115Z,51.88
2022-10-01T10:50:30.275Z,52.08
2022-10-01T10:52:57.810Z,51.64
2022-10-01T10:55:30.959Z,52.56
2022-10-01T10:58:11.684Z,52.38
2022-10-01T11:00:47.721Z,52.41
2022-10-01T11:03:17.991Z,52.45
2022-10-01T11:05:44.612Z,52.38
2022-10-01T11:08:23.837Z,52.42
2022-10-01T11:11:09.496Z,52.51
2022-10-01T11:13:42.227Z,52.19
2022-10-01T11:16:08.837Z,52.42
2022-10-01T11:18:38.000Z,52.33
2022-10-01T11:21:30.341Z,52.54
2022-10-01T11:24:32.937Z,52.93
2022-10-01T11:27:17.101Z,52.76
2022-10-01T11:30:10.716Z,52.83
2022-10-01T11:33:03.444Z,52.51
2022-10-01T11:35:34.006Z,52.22
2022-10-01T11:38:20.088Z,52.47
2022-10-01T11:40:52.323Z,52.46
2022-10-01T11:43:21.110Z,52.13
2022-10-01T11:45:56.333Z,52.59
2022-10-01T11:48:33.170Z,52.48
2022-10-01T11:51:08.754Z,52.51
2022-10-01T11:53:46.210Z,52.34
2022-10-01T11:56:38.395Z,52.33
2022-10-01T11:59:21.557Z,52.18
2022-10-01T12:02:02.783Z,52.37
2022-10-01T12:04:33.090Z,52.01
2022-10-01T12:07:12.137Z,52.22
2022-10-01T12:10:01.312Z,52.62
2022-10-01T12:13:08.411Z,52.15
2022-10-01T12:15:49.956Z,52.41
2022-10-01T12:18:25.153Z,52.45
2022-10-01T12:20:55.741Z,52.17
2022-10-01T12:23:42.754Z,52.38
2022-10-01T12:26:21.411Z,51.96
2022-10-01T12:29:00.469Z,51.98
2022-10-01T12:31:58.856Z,51.89
2022-10-01T12:34:56.055Z,52.28
2022-10-01T12:37:44.659Z,51.87
2022-10-01T12:40:39.843Z,51.88
2022-10-01T12:43:26.174Z,51.65
2022-10-01T12:45:58.955Z,51.77
2022-10-01T12:48:39.825Z,51.98
2022-10-01T12:51:27.564Z,52.11
2022-10-01T12:54:18.877Z,51.71
2022-10-01T12:56:54.635Z,52.14
2022-10-01T12:59:24.373Z,51.99
2022-10-01T13:02:18.844Z,52.09
2022-10-01T13:05:03.754Z,51.84
2022-10-01T13:07:46.952Z,51.97
2022-10-01T13:10:35.819Z,52.18
2022-10-01T13:13:21.540Z,52.41
2022-10-01T13:15:55.369Z,52.10
2022-10-01T13:18:59.516Z,52.03
2022-10-01T13:21:30.431Z,52.17
2022-10-01T13:24:35.800Z,52.46
2022-10-01T13:27:28.438Z,53.49
2022-10-01T13:30:05.987Z,52.87
2022-10-01T13:32:51.962Z,52.80
2022-10-01T13:35:36.566Z,53.16
2022-10-01T13:38:29.243Z,52.87
2022-10-01T13:41:04.646Z,53.14
2022-10-01T13:43:34.139Z,52.77
2022-10-01T13:46:11.172Z,52.98
2022-10-01T13:48:47.129Z,52.90
2022-10-01T13:51:14.781Z,52.99
2022-10-01T13:53:41.298Z,52.31
2022-10-01T13:56:11.502Z,52.65
2022-10-01T13:58:45.537Z,52.51
2022-10-01T14:01:23.568Z,52.37
2022-10-01T14:03:57.074Z,52.69
2022-10-01T14:06:39.342Z,52.66
2022-10-01T14:09:33.666Z,52.43
2022-10-01T14:13:07.876Z,52.55
2022-10-01T14:15:59.150Z,52.23
2022-10-01T14:18:34.648Z,52.83
2022-10-01T14:21:34.024Z,52.74
2022-10-01T14:24:26.426Z,52.72
2022-10-01T14:26:57.034Z,52.89
2022-10-01T14:29:26.216Z,52.51
2022-10-01T14:32:00.590Z,52.54
2022-10-01T14:34:42.306Z,52.86
2022-10-01T14:37:16.964Z,52.83
2022-10-01T14:39:44.278Z,52.49
2022-10-01T14:42:17.458Z,52.38
2022-10-01T14:44:47.862Z,52.47
2022-10-01T14:47:20.397Z,52.70
2022-10-01T14:49:48.157Z,52.27
2022-10-01T14:52:23.389Z,52.82
2022-10-01T14:55:02.946Z,52.73
2022-10-01T14:57:31.228Z,52.63
2022-10-01T15:00:00.420Z,52.50
2022-10-01T15:02:27.709Z,52.29
2022-10-01T15:04:56.517Z,52.03
2022-10-01T15:07:25.372Z,51.88
2022-10-01T15:09:52.216Z,51.86
2022-10-01T15:12:21.655Z,52.02
2022-10-01T15:14:53.928Z,52.16
2022-10-01T15:17:24.998Z,52.07
2022-10-01T15:19:55.000Z,51.79
2022-10-01T15:22:26.957Z,52.11
2022-10-01T15:24:57.828Z,52.01
2022-10-01T15:27:25.977Z,51.51
2022-10-01T15:29:56.519Z,51.60
2022-10-01T15:32:25.177Z,51.62
2022-10-01T15:34:56.645Z,51.87
2022-10-01T15:37:35.280Z,51.92
2022-10-01T15:40:03.326Z,51.63
2022-10-01T15:42:32.799Z,51.62
2022-10-01T15:45:08.221Z,52.02
2022-10-01T15:47:37.370Z,51.59
2022-10-01T15:50:06.945Z,51.89
2022-10-01T15:52:51.215Z,51.65
2022-10-01T15:55:30.961Z,51.74
2022-10-01T15:58:14.982Z,51.59
2022-10-01T16:00:47.675Z,51.86
2022-10-01T16:03:23.390Z,51.91
2022-10-01T16:05:51.264Z,51.90
2022-10-01T16:08:38.315Z,51.44
2022-10-01T16:11:24.149Z,51.41
2022-10-01T16:13:52.665Z,50.71
2022-10-01T16:16:26.624Z,50.75
2022-10-01T16:19:24.444Z,50.24
2022-10-01T16:22:17.206Z,50.21
2022-10-01T16:24:55.272Z,50.89
2022-10-01T16:27:25.594Z,50.93
2022-10-01T16:30:07.181Z,51.14
2022-10-01T16:32:33.925Z,51.34
2022-10-01T16:35:21.123Z,51.32
2022-10-01T16:37:50.045Z,51.28
2022-10-01T16:40:18.112Z,51.43
2022-10-01T16:42:46.169Z,51.46
2022-10-01T16:45:18.789Z,51.56
2022-10-01T16:47:46.437Z,51.39
2022-10-01T16:50:15.506Z,51.77
2022-10-01T16:52:42.308Z,51.43
2022-10-01T16:55:24.521Z,51.88
2022-10-01T16:57:52.143Z,51.69
2022-10-01T17:00:20.243Z,51.80
2022-10-01T17:02:46.932Z,51.53
2022-10-01T17:05:26.035Z,51.84
2022-10-01T17:07:54.014Z,51.72
2022-10-01T17:10:22.862Z,51.95
2022-10-01T17:12:50.156Z,51.63
2022-10-01T17:15:19.376Z,51.89
2022-10-01T17:17:47.351Z,51.62
2022-10-01T17:20:14.849Z,51.61
2022-10-01T17:23:01.692Z,51.92
2022-10-01T17:25:32.360Z,51.57
2022-10-01T17:27:59.844Z,51.44
2022-10-01T17:30:29.207Z,51.24
2022-10-01T17:32:57.607Z,51.09
2022-10-01T17:35:24.531Z,51.34
2022-10-01T17:37:51.770Z,51.34
2022-10-01T17:40:19.301Z,51.53
2022-10-01T17:42:46.100Z,51.44
2022-10-01T17:45:14.022Z,51.08
2022-10-01T17:47:48.866Z,51.31
2022-10-01T17:50:16.865Z,51.44
2022-10-01T17:52:43.693Z,51.45
2022-10-01T17:55:12.364Z,51.12
2022-10-01T17:57:38.927Z,51.15
2022-10-01T18:00:06.163Z,51.33
2022-10-01T18:02:47.500Z,51.25
2022-10-01T18:05:14.958Z,51.04
2022-10-01T18:07:42.692Z,51.25
2022-10-01T18:10:13.005Z,51.56
2022-10-01T18:12:40.132Z,51.18
2022-10-01T18:15:07.189Z,51.34
2022-10-01T18:17:36.337Z,51.19
2022-10-01T18:20:05.461Z,51.19
2022-10-01T18:22:32.517Z,51.32
2022-10-01T18:24:59.080Z,51.67
2022-10-01T18:27:25.645Z,51.33
2022-10-01T18:29:52.702Z,51.57
2022-10-01T18:32:22.250Z,51.73
2022-10-01T18:34:57.941Z,51.45
2022-10-01T18:37:43.992Z,51.81
2022-10-01T18:40:34.938Z,51.70
2022-10-01T18:43:21.813Z,51.59
2022-10-01T18:46:17.980Z,51.68
2022-10-01T18:49:04.911Z,51.43
2022-10-01T18:51:53.990Z,51.48
2022-10-01T18:54:39.311Z,51.51
2022-10-01T18:57:17.634Z,51.55
2022-10-01T19:00:01.465Z,51.56
2022-10-01T19:02:55.039Z,51.42
2022-10-01T19:05:55.852Z,51.33
2022-10-01T19:08:49.406Z,51.42
2022-10-01T19:11:53.418Z,51.41
2022-10-01T19:14:40.972Z,51.41
2022-10-01T19:17:16.530Z,51.49
2022-10-01T19:20:02.846Z,51.45
2022-10-01T19:23:00.893Z,51.39
2022-10-01T19:25:43.425Z,51.35
2022-10-01T19:28:19.575Z,51.48
2022-10-01T19:31:02.581Z,51.08
2022-10-01T19:33:33.481Z,51.10
2022-10-01T19:36:01.451Z,51.40
2022-10-01T19:38:34.567Z,51.40
2022-10-01T19:41:26.567Z,51.40
2022-10-01T19:44:02.681Z,51.28
2022-10-01T19:46:37.434Z,51.14
2022-10-01T19:49:25.484Z,51.14
2022-10-01T19:51:57.907Z,51.38
2022-10-01T19:54:32.095Z,51.42
2022-10-01T19:57:16.116Z,50.91
2022-10-01T19:59:43.051Z,51.14
2022-10-01T20:02:33.131Z,51.13
2022-10-01T20:05:06.540Z,51.24
2022-10-01T20:08:11.622Z,51.22
2022-10-01T20:10:45.108Z,51.19
2022-10-01T20:13:30.805Z,51.03
2022-10-01T20:16:26.971Z,51.44
2022-10-01T20:19:05.916Z,51.10
2022-10-01T20:21:39.281Z,51.21
2022-10-01T20:24:36.221Z,51.00
2022-10-01T20:27:30.295Z,51.04
2022-10-01T20:30:05.867Z,51.30
2022-10-01T20:32:50.780Z,51.07
2022-10-01T20:35:29.791Z,51.00
2022-10-01T20:38:08.928Z,51.12
2022-10-01T20:40:44.078Z,51.19
2022-10-01T20:43:18.432Z,50.94
2022-10-01T20:45:47.162Z,50.85
2022-10-01T20:48:19.362Z,50.89
2022-10-01T20:50:51.032Z,50.93
2022-10-01T20:53:28.615Z,51.20
2022-10-01T20:56:04.219Z,51.01
2022-10-01T20:58:44.377Z,51.00
2022-10-01T21:01:21.041Z,51.27
2022-10-01T21:04:03.530Z,51.24
2022-10-01T21:06:37.345Z,50.91
2022-10-01T21:09:13.615Z,51.20
2022-10-01T21:11:55.835Z,51.23
2022-10-01T21:14:54.495Z,50.89
2022-10-01T21:17:44.203Z,51.23
2022-10-01T21:20:49.834Z,51.11
2022-10-01T21:23:43.599Z,51.02
2022-10-01T21:26:25.407Z,51.02
2022-10-01T21:29:15.792Z,50.84
2022-10-01T21:32:10.921Z,50.42
2022-10-01T21:35:17.959Z,50.96
2022-10-01T21:37:55.448Z,50.94
2022-10-01T21:40:36.812Z,50.84
2022-10-01T21:43:20.549Z,50.41
2022-10-01T21:46:00.359Z,50.30
2022-10-01T21:49:06.202Z,50.57
2022-10-01T21:51:55.196Z,50.80
2022-10-01T21:54:48.590Z,50.49
2022-10-01T21:57:18.763Z,50.63
2022-10-01T22:00:08.620Z,51.06
2022-10-01T22:03:22.708Z,50.77
2022-10-01T22:06:04.176Z,50.72
2022-10-01T22:08:55.204Z,50.59
2022-10-01T22:11:29.703Z,50.89
2022-10-01T22:14:01.367Z,50.91
2022-10-01T22:16:34.724Z,50.61
2022-10-01T22:19:11.654Z,50.66
2022-10-01T22:21:48.205Z,50.51
2022-10-01T22:24:18.639Z,50.48
2022-10-01T22:26:49.467Z,50.30
2022-10-01T22:29:21.269Z,50.41
2022-10-01T22:31:51.627Z,50.27
2022-10-01T22:34:23.896Z,50.10
2022-10-01T22:37:00.542Z,50.30
2022-10-01T22:39:33.419Z,50.37
2022-10-01T22:42:08.951Z,50.40
2022-10-01T22:44:35.434Z,50.39
2022-10-01T22:47:31.850Z,50.20
2022-10-01T22:50:16.735Z,49.98
2022-10-01T22:53:20.792Z,50.17
2022-10-01T22:55:54.231Z,50.13
2022-10-01T22:58:50.323Z,50.25
2022-10-01T23:01:28.721Z,49.98
2022-10-01T23:04:32.057Z,50.01
2022-10-01T23:07:15.919Z,50.19
2022-10-01T23:10:22.896Z,50.49
2022-10-01T23:13:31.490Z,50.45
2022-10-01T23:16:15.030Z,50.38
2022-10-01T23:18:53.717Z,50.64
2022-10-01T23:21:59.467Z,50.79
2022-10-01T23:25:02.021Z,50.73
2022-10-01T23:27:49.793Z,50.72
2022-10-01T23:30:18.558Z,50.75
2022-10-01T23:33:07.167Z,50.76
2022-10-01T23:35:36.591Z,50.81
2022-10-01T23:38:15.366Z,50.60
2022-10-01T23:40:44.998Z,50.48
2022-10-01T23:43:36.899Z,50.65
2022-10-01T23:46:09.751Z,50.51
2022-10-01T23:48:59.797Z,50.85
2022-10-01T23:51:41.845Z,50.60
2022-10-01T23:54:26.579Z,50.64
2022-10-01T23:56:59.516Z,50.94
2022-10-01T23:59:33.563Z,50.75
